OAS9603 SKBO-SKSP
Flight info
| Callsign | OAS9603 |
|---|---|
| Flight time | N/A |
| Altitude | 36000 |
| Route | VASIL4U VASIL UL423 PULOX ARORO UN653 TOSAV TOSAV2A |
| Aircraft | A320/M-SDE3FGHIRWY/LB1 |
Departure
| Time | 2026-05-01 14:15 |
|---|---|
| Airport | El Dorado International Airport (SKBO) |
Arrival
| Time | N/A |
|---|---|
| Airport | Gustavo Rojas Pinilla International Airport (SKSP) |
| Time | Latitude | Longitude | Altitude | Speed | Heading |
|---|---|---|---|---|---|
| 2026-05-01 14:00 | 4.69857 | -74.14419 | 8366 ft | 0 kts | 227° |
| 2026-05-01 14:03 | 4.69859 | -74.14416 | 8366 ft | 3 kts | 227° |
| 2026-05-01 14:04 | 4.69877 | -74.14397 | 8366 ft | 4 kts | 233° |
| 2026-05-01 14:04 | 4.69887 | -74.14374 | 8366 ft | 4 kts | 283° |
| 2026-05-01 14:04 | 4.69875 | -74.14351 | 8366 ft | 4 kts | 310° |
| 2026-05-01 14:04 | 4.69865 | -74.14339 | 8366 ft | 1 kts | 307° |
| 2026-05-01 14:05 | 4.69882 | -74.14361 | 8366 ft | 4 kts | 307° |
| 2026-05-01 14:05 | 4.69895 | -74.14379 | 8366 ft | 1 kts | 307° |
| 2026-05-01 14:05 | 4.69895 | -74.14380 | 8366 ft | 0 kts | 307° |
| 2026-05-01 14:07 | 4.69899 | -74.14385 | 8366 ft | 3 kts | 308° |
| 2026-05-01 14:08 | 4.69969 | -74.14477 | 8366 ft | 13 kts | 308° |
| 2026-05-01 14:08 | 4.70034 | -74.14559 | 8366 ft | 17 kts | 308° |
| 2026-05-01 14:08 | 4.70128 | -74.14636 | 8366 ft | 19 kts | 322° |
| 2026-05-01 14:08 | 4.70125 | -74.14730 | 8366 ft | 16 kts | 225° |
| 2026-05-01 14:09 | 4.70031 | -74.14800 | 8366 ft | 18 kts | 216° |
| 2026-05-01 14:09 | 4.69932 | -74.14875 | 8366 ft | 17 kts | 217° |
| 2026-05-01 14:09 | 4.69853 | -74.14957 | 8366 ft | 14 kts | 267° |
| 2026-05-01 14:09 | 4.69910 | -74.15049 | 8366 ft | 17 kts | 307° |
| 2026-05-01 14:10 | 4.69987 | -74.15150 | 8366 ft | 19 kts | 308° |
| 2026-05-01 14:10 | 4.70071 | -74.15262 | 8366 ft | 21 kts | 308° |
| 2026-05-01 14:10 | 4.70161 | -74.15380 | 8365 ft | 22 kts | 307° |
| 2026-05-01 14:10 | 4.70247 | -74.15494 | 8365 ft | 21 kts | 307° |
| 2026-05-01 14:11 | 4.70340 | -74.15618 | 8365 ft | 23 kts | 306° |
| 2026-05-01 14:11 | 4.70522 | -74.15858 | 8365 ft | 20 kts | 307° |
| 2026-05-01 14:11 | 4.70608 | -74.15971 | 8365 ft | 20 kts | 308° |
| 2026-05-01 14:12 | 4.70691 | -74.16081 | 8366 ft | 19 kts | 307° |
| 2026-05-01 14:12 | 4.70773 | -74.16190 | 8366 ft | 20 kts | 307° |
| 2026-05-01 14:12 | 4.70857 | -74.16301 | 8366 ft | 20 kts | 307° |
| 2026-05-01 14:12 | 4.70942 | -74.16413 | 8366 ft | 20 kts | 307° |
| 2026-05-01 14:13 | 4.71030 | -74.16528 | 8365 ft | 21 kts | 307° |
| 2026-05-01 14:13 | 4.71088 | -74.16605 | 8366 ft | 21 kts | 307° |
| 2026-05-01 14:13 | 4.71199 | -74.16763 | 8366 ft | 18 kts | 289° |
| 2026-05-01 14:13 | 4.71143 | -74.16841 | 8364 ft | 16 kts | 218° |
| 2026-05-01 14:14 | 4.71049 | -74.16905 | 8363 ft | 11 kts | 195° |
| 2026-05-01 14:14 | 4.70991 | -74.16842 | 8363 ft | 19 kts | 127° |
| 2026-05-01 14:14 | 4.70775 | -74.16548 | 8365 ft | 86 kts | 127° |
| 2026-05-01 14:14 | 4.70288 | -74.15903 | 8364 ft | 144 kts | 127° |
| 2026-05-01 14:15 | 4.69577 | -74.14979 | 8431 ft | 183 kts | 128° |
| 2026-05-01 14:15 | 4.68811 | -74.13989 | 9235 ft | 180 kts | 129° |
| 2026-05-01 14:15 | 4.67806 | -74.13276 | 9918 ft | 182 kts | 170° |
| 2026-05-01 14:15 | 4.66531 | -74.13528 | 10335 ft | 203 kts | 213° |
| 2026-05-01 14:16 | 4.65532 | -74.14635 | 10543 ft | 227 kts | 232° |
| 2026-05-01 14:16 | 4.64601 | -74.16003 | 10708 ft | 245 kts | 235° |
| 2026-05-01 14:16 | 4.63665 | -74.17455 | 11097 ft | 250 kts | 235° |
| 2026-05-01 14:16 | 4.62729 | -74.18911 | 11521 ft | 253 kts | 234° |
| 2026-05-01 14:17 | 4.61784 | -74.20415 | 11938 ft | 257 kts | 241° |
| 2026-05-01 14:17 | 4.61270 | -74.22159 | 12287 ft | 268 kts | 257° |
| 2026-05-01 14:17 | 4.60909 | -74.24060 | 12452 ft | 286 kts | 257° |
| 2026-05-01 14:17 | 4.60531 | -74.26056 | 12849 ft | 294 kts | 257° |
| 2026-05-01 14:18 | 4.60227 | -74.28098 | 13372 ft | 299 kts | 263° |
| 2026-05-01 14:18 | 4.60069 | -74.30187 | 13915 ft | 302 kts | 265° |
| 2026-05-01 14:18 | 4.59958 | -74.32301 | 14360 ft | 306 kts | 266° |
| 2026-05-01 14:18 | 4.59897 | -74.33718 | 14676 ft | 308 kts | 266° |
| 2026-05-01 14:19 | 4.59778 | -74.36570 | 15295 ft | 310 kts | 266° |
| 2026-05-01 14:19 | 4.59677 | -74.38741 | 15744 ft | 313 kts | 265° |
| 2026-05-01 14:19 | 4.59640 | -74.40939 | 15892 ft | 316 kts | 275° |
| 2026-05-01 14:19 | 4.59967 | -74.43128 | 15884 ft | 316 kts | 278° |
| 2026-05-01 14:20 | 4.60321 | -74.45297 | 15864 ft | 316 kts | 278° |
| 2026-05-01 14:20 | 4.61035 | -74.49644 | 15820 ft | 316 kts | 278° |
| 2026-05-01 14:20 | 4.61389 | -74.51819 | 15809 ft | 317 kts | 278° |
| 2026-05-01 14:21 | 4.61753 | -74.54078 | 15833 ft | 339 kts | 278° |
| 2026-05-01 14:21 | 4.62137 | -74.56470 | 15954 ft | 357 kts | 278° |
| 2026-05-01 14:21 | 4.62534 | -74.58962 | 16060 ft | 374 kts | 278° |
| 2026-05-01 14:22 | 4.63391 | -74.64312 | 16449 ft | 398 kts | 278° |
| 2026-05-01 14:22 | 4.63837 | -74.67065 | 16915 ft | 402 kts | 278° |
| 2026-05-01 14:22 | 4.64289 | -74.69852 | 17375 ft | 405 kts | 278° |
| 2026-05-01 14:22 | 4.64742 | -74.72653 | 17860 ft | 408 kts | 278° |
| 2026-05-01 14:23 | 4.65196 | -74.75480 | 18324 ft | 412 kts | 278° |
| 2026-05-01 14:23 | 4.65650 | -74.78322 | 18720 ft | 415 kts | 278° |
| 2026-05-01 14:23 | 4.66224 | -74.81138 | 19149 ft | 418 kts | 287° |
| 2026-05-01 14:23 | 4.67316 | -74.83842 | 19577 ft | 421 kts | 298° |
| 2026-05-01 14:24 | 4.68934 | -74.86297 | 20002 ft | 422 kts | 310° |
| 2026-05-01 14:24 | 4.71006 | -74.88383 | 20435 ft | 423 kts | 322° |
| 2026-05-01 14:24 | 4.73414 | -74.90094 | 20877 ft | 424 kts | 327° |
| 2026-05-01 14:24 | 4.75872 | -74.91756 | 21314 ft | 426 kts | 327° |
| 2026-05-01 14:25 | 4.77506 | -74.92862 | 21615 ft | 428 kts | 327° |
| 2026-05-01 14:25 | 4.79976 | -74.94540 | 22039 ft | 430 kts | 327° |
| 2026-05-01 14:25 | 4.82456 | -74.96230 | 22452 ft | 432 kts | 327° |
| 2026-05-01 14:25 | 4.84944 | -74.97928 | 22869 ft | 434 kts | 327° |
| 2026-05-01 14:26 | 4.87444 | -74.99633 | 23284 ft | 436 kts | 327° |
| 2026-05-01 14:26 | 4.93329 | -75.03628 | 24019 ft | 442 kts | 327° |
| 2026-05-01 14:26 | 4.95050 | -75.04794 | 24232 ft | 443 kts | 327° |
| 2026-05-01 14:27 | 4.97603 | -75.06529 | 24524 ft | 444 kts | 326° |
| 2026-05-01 14:27 | 5.00169 | -75.08275 | 24821 ft | 446 kts | 326° |
| 2026-05-01 14:27 | 5.02743 | -75.10029 | 25110 ft | 448 kts | 326° |
| 2026-05-01 14:28 | 5.07914 | -75.13551 | 25689 ft | 451 kts | 326° |
| 2026-05-01 14:28 | 5.10518 | -75.15323 | 25959 ft | 453 kts | 326° |
| 2026-05-01 14:28 | 5.13125 | -75.17096 | 26261 ft | 454 kts | 326° |
| 2026-05-01 14:28 | 5.15720 | -75.18912 | 26619 ft | 456 kts | 321° |
| 2026-05-01 14:29 | 5.18115 | -75.20938 | 26888 ft | 457 kts | 319° |
| 2026-05-01 14:29 | 5.20528 | -75.23018 | 27171 ft | 458 kts | 319° |
| 2026-05-01 14:30 | 5.27802 | -75.29301 | 27959 ft | 462 kts | 318° |
| 2026-05-01 14:30 | 5.30240 | -75.31404 | 28228 ft | 463 kts | 318° |
| 2026-05-01 14:30 | 5.32687 | -75.33514 | 28478 ft | 464 kts | 318° |
| 2026-05-01 14:31 | 5.37597 | -75.37740 | 28938 ft | 466 kts | 318° |
| 2026-05-01 14:31 | 5.40060 | -75.39862 | 29181 ft | 468 kts | 318° |
| 2026-05-01 14:31 | 5.42531 | -75.41996 | 29408 ft | 469 kts | 318° |
| 2026-05-01 14:31 | 5.45004 | -75.44130 | 29622 ft | 470 kts | 318° |
| 2026-05-01 14:32 | 5.47489 | -75.46271 | 29838 ft | 471 kts | 318° |
| 2026-05-01 14:32 | 5.49978 | -75.48419 | 30049 ft | 472 kts | 318° |
| 2026-05-01 14:32 | 5.52470 | -75.50571 | 30238 ft | 474 kts | 317° |
| 2026-05-01 14:32 | 5.54971 | -75.52731 | 30388 ft | 475 kts | 317° |
| 2026-05-01 14:33 | 5.57479 | -75.54892 | 30570 ft | 475 kts | 317° |
| 2026-05-01 14:33 | 5.59984 | -75.57051 | 30793 ft | 474 kts | 317° |
| 2026-05-01 14:33 | 5.62481 | -75.59204 | 31051 ft | 473 kts | 317° |
| 2026-05-01 14:33 | 5.64977 | -75.61356 | 31288 ft | 472 kts | 317° |
| 2026-05-01 14:34 | 5.67459 | -75.63499 | 31542 ft | 470 kts | 317° |
| 2026-05-01 14:34 | 5.69939 | -75.65641 | 31794 ft | 469 kts | 317° |
| 2026-05-01 14:34 | 5.72408 | -75.67772 | 32037 ft | 468 kts | 317° |
| 2026-05-01 14:34 | 5.74876 | -75.69901 | 32267 ft | 467 kts | 317° |
| 2026-05-01 14:35 | 5.77332 | -75.72025 | 32499 ft | 466 kts | 317° |
| 2026-05-01 14:35 | 5.79784 | -75.74147 | 32766 ft | 464 kts | 316° |
| 2026-05-01 14:35 | 5.82194 | -75.76234 | 32990 ft | 463 kts | 316° |
| 2026-05-01 14:35 | 5.84628 | -75.78340 | 33249 ft | 462 kts | 316° |
| 2026-05-01 14:36 | 5.87061 | -75.80443 | 33501 ft | 461 kts | 316° |
| 2026-05-01 14:36 | 5.89489 | -75.82540 | 33771 ft | 460 kts | 316° |
| 2026-05-01 14:36 | 5.91908 | -75.84628 | 34036 ft | 458 kts | 316° |
| 2026-05-01 14:36 | 5.94321 | -75.86713 | 34262 ft | 457 kts | 316° |
| 2026-05-01 14:37 | 5.96724 | -75.88791 | 34471 ft | 455 kts | 316° |
| 2026-05-01 14:37 | 5.99124 | -75.90865 | 34696 ft | 454 kts | 316° |
| 2026-05-01 14:37 | 6.01517 | -75.92930 | 34861 ft | 453 kts | 316° |
| 2026-05-01 14:37 | 6.03907 | -75.94995 | 35039 ft | 453 kts | 316° |
| 2026-05-01 14:38 | 6.06291 | -75.97057 | 35246 ft | 452 kts | 316° |
| 2026-05-01 14:38 | 6.08666 | -75.99112 | 35445 ft | 451 kts | 316° |
| 2026-05-01 14:38 | 6.11039 | -76.01166 | 35652 ft | 449 kts | 316° |
| 2026-05-01 14:38 | 6.13403 | -76.03214 | 35846 ft | 449 kts | 316° |
| 2026-05-01 14:39 | 6.15769 | -76.05261 | 35988 ft | 449 kts | 316° |
| 2026-05-01 14:39 | 6.20488 | -76.09341 | 36026 ft | 447 kts | 316° |
| 2026-05-01 14:40 | 6.25194 | -76.13418 | 36024 ft | 446 kts | 316° |
| 2026-05-01 14:40 | 6.29891 | -76.17493 | 36023 ft | 446 kts | 316° |
| 2026-05-01 14:41 | 6.34588 | -76.21561 | 36022 ft | 446 kts | 316° |
| 2026-05-01 14:41 | 6.39285 | -76.25623 | 36013 ft | 445 kts | 316° |
| 2026-05-01 14:42 | 6.43987 | -76.29694 | 36004 ft | 447 kts | 316° |
| 2026-05-01 14:42 | 6.48693 | -76.33778 | 36002 ft | 447 kts | 316° |
| 2026-05-01 14:43 | 6.53368 | -76.37837 | 35995 ft | 447 kts | 316° |
| 2026-05-01 14:43 | 6.58104 | -76.41945 | 35985 ft | 447 kts | 316° |
| 2026-05-01 14:44 | 6.62786 | -76.46005 | 35980 ft | 447 kts | 316° |
| 2026-05-01 14:44 | 6.69855 | -76.52138 | 35958 ft | 448 kts | 316° |
| 2026-05-01 14:45 | 6.76933 | -76.58284 | 35949 ft | 448 kts | 317° |
| 2026-05-01 14:46 | 6.81650 | -76.62389 | 35941 ft | 449 kts | 317° |
| 2026-05-01 14:46 | 6.88742 | -76.68549 | 35928 ft | 449 kts | 317° |
| 2026-05-01 14:47 | 6.93483 | -76.72664 | 35922 ft | 449 kts | 317° |
| 2026-05-01 14:48 | 7.00562 | -76.78814 | 35917 ft | 450 kts | 317° |
| 2026-05-01 14:48 | 7.07678 | -76.84997 | 35911 ft | 450 kts | 317° |
| 2026-05-01 14:49 | 7.17166 | -76.93256 | 35911 ft | 450 kts | 317° |
| 2026-05-01 14:50 | 7.26631 | -77.01509 | 35910 ft | 451 kts | 317° |
| 2026-05-01 14:51 | 7.33757 | -77.07708 | 35913 ft | 451 kts | 317° |
| 2026-05-01 14:52 | 7.40857 | -77.13888 | 35914 ft | 451 kts | 317° |
| 2026-05-01 14:53 | 7.47982 | -77.20104 | 35908 ft | 451 kts | 317° |
| 2026-05-01 14:53 | 7.52705 | -77.24225 | 35913 ft | 451 kts | 317° |
| 2026-05-01 14:54 | 7.57454 | -77.28371 | 35914 ft | 452 kts | 317° |
| 2026-05-01 14:54 | 7.62210 | -77.32525 | 35917 ft | 452 kts | 317° |
| 2026-05-01 14:55 | 7.66971 | -77.36677 | 35916 ft | 452 kts | 317° |
| 2026-05-01 14:55 | 7.71693 | -77.40802 | 35923 ft | 452 kts | 317° |
| 2026-05-01 14:56 | 7.76458 | -77.44967 | 35924 ft | 452 kts | 317° |
| 2026-05-01 14:56 | 7.81220 | -77.49120 | 35924 ft | 452 kts | 317° |
| 2026-05-01 14:57 | 7.85981 | -77.53282 | 35928 ft | 452 kts | 317° |
| 2026-05-01 14:57 | 7.93096 | -77.59506 | 35926 ft | 452 kts | 317° |
| 2026-05-01 14:58 | 7.97868 | -77.63675 | 35923 ft | 453 kts | 317° |
| 2026-05-01 14:58 | 8.02598 | -77.67813 | 35920 ft | 453 kts | 317° |
| 2026-05-01 14:59 | 8.07355 | -77.71974 | 35920 ft | 453 kts | 317° |
| 2026-05-01 14:59 | 8.12110 | -77.76141 | 35912 ft | 453 kts | 317° |
| 2026-05-01 15:00 | 8.19243 | -77.82392 | 35909 ft | 453 kts | 317° |
| 2026-05-01 15:01 | 8.23996 | -77.86558 | 35904 ft | 453 kts | 317° |
| 2026-05-01 15:01 | 8.28752 | -77.90725 | 35903 ft | 453 kts | 317° |
| 2026-05-01 15:02 | 8.33515 | -77.94904 | 35905 ft | 453 kts | 317° |
| 2026-05-01 15:02 | 8.38277 | -77.99079 | 35904 ft | 454 kts | 317° |
| 2026-05-01 15:03 | 8.43040 | -78.03265 | 35901 ft | 454 kts | 317° |
| 2026-05-01 15:03 | 8.47809 | -78.07461 | 35894 ft | 455 kts | 317° |
| 2026-05-01 15:04 | 8.52587 | -78.11654 | 35893 ft | 455 kts | 317° |
| 2026-05-01 15:04 | 8.57371 | -78.15849 | 35894 ft | 456 kts | 317° |
| 2026-05-01 15:05 | 8.62163 | -78.20054 | 35893 ft | 456 kts | 316° |
| 2026-05-01 15:05 | 8.66958 | -78.24268 | 35892 ft | 457 kts | 316° |
| 2026-05-01 15:06 | 8.71751 | -78.28488 | 35897 ft | 457 kts | 316° |
| 2026-05-01 15:06 | 8.76520 | -78.32681 | 35906 ft | 457 kts | 316° |
| 2026-05-01 15:07 | 8.81321 | -78.36903 | 35911 ft | 457 kts | 316° |
| 2026-05-01 15:07 | 8.86109 | -78.41122 | 35918 ft | 456 kts | 316° |
| 2026-05-01 15:08 | 8.90898 | -78.45335 | 35915 ft | 456 kts | 316° |
| 2026-05-01 15:08 | 8.95676 | -78.49546 | 35918 ft | 455 kts | 316° |
| 2026-05-01 15:09 | 9.00440 | -78.53752 | 35914 ft | 454 kts | 315° |
| 2026-05-01 15:09 | 9.05199 | -78.57943 | 35921 ft | 453 kts | 315° |
| 2026-05-01 15:10 | 9.09956 | -78.62131 | 35917 ft | 452 kts | 315° |
| 2026-05-01 15:10 | 9.17056 | -78.68407 | 35910 ft | 451 kts | 315° |
| 2026-05-01 15:11 | 9.24112 | -78.74634 | 35903 ft | 450 kts | 315° |
| 2026-05-01 15:12 | 9.28839 | -78.78799 | 35901 ft | 450 kts | 315° |
| 2026-05-01 15:12 | 9.35913 | -78.85041 | 35895 ft | 449 kts | 315° |
| 2026-05-01 15:14 | 9.47672 | -78.95447 | 35894 ft | 449 kts | 315° |
| 2026-05-01 15:14 | 9.54727 | -79.01684 | 35895 ft | 449 kts | 315° |
| 2026-05-01 15:15 | 9.64121 | -79.10011 | 35891 ft | 449 kts | 315° |
| 2026-05-01 15:16 | 9.73519 | -79.18346 | 35890 ft | 449 kts | 315° |
| 2026-05-01 15:18 | 9.84492 | -79.28072 | 35890 ft | 450 kts | 316° |
| 2026-05-01 15:19 | 9.93917 | -79.36433 | 35896 ft | 450 kts | 316° |
| 2026-05-01 15:19 | 10.00994 | -79.42720 | 35896 ft | 451 kts | 316° |
| 2026-05-01 15:20 | 10.08070 | -79.49019 | 35894 ft | 452 kts | 316° |
| 2026-05-01 15:21 | 10.12804 | -79.53219 | 35895 ft | 452 kts | 316° |
| 2026-05-01 15:21 | 10.17538 | -79.57424 | 35898 ft | 452 kts | 316° |
| 2026-05-01 15:22 | 10.24631 | -79.63742 | 35898 ft | 453 kts | 316° |
| 2026-05-01 15:22 | 10.29367 | -79.67961 | 35898 ft | 453 kts | 316° |
| 2026-05-01 15:23 | 10.34109 | -79.72177 | 35905 ft | 453 kts | 316° |
| 2026-05-01 15:23 | 10.38845 | -79.76398 | 35904 ft | 453 kts | 316° |
| 2026-05-01 15:24 | 10.43546 | -79.80599 | 35905 ft | 453 kts | 316° |
| 2026-05-01 15:24 | 10.48280 | -79.84831 | 35907 ft | 453 kts | 316° |
| 2026-05-01 15:25 | 10.53018 | -79.89053 | 35902 ft | 453 kts | 316° |
| 2026-05-01 15:25 | 10.57764 | -79.93282 | 35902 ft | 453 kts | 316° |
| 2026-05-01 15:26 | 10.62507 | -79.97514 | 35905 ft | 454 kts | 316° |
| 2026-05-01 15:26 | 10.67246 | -80.01750 | 35901 ft | 454 kts | 316° |
| 2026-05-01 15:27 | 10.71984 | -80.05990 | 35905 ft | 454 kts | 316° |
| 2026-05-01 15:28 | 10.79096 | -80.12352 | 35908 ft | 454 kts | 316° |
| 2026-05-01 15:28 | 10.83833 | -80.16593 | 35911 ft | 454 kts | 316° |
| 2026-05-01 15:29 | 10.90946 | -80.22971 | 35913 ft | 453 kts | 316° |
| 2026-05-01 15:30 | 11.00407 | -80.31434 | 35916 ft | 453 kts | 315° |
| 2026-05-01 15:31 | 11.14546 | -80.44129 | 35922 ft | 451 kts | 315° |
| 2026-05-01 15:32 | 11.23966 | -80.52597 | 35921 ft | 450 kts | 315° |
| 2026-05-01 15:33 | 11.30996 | -80.58908 | 35797 ft | 451 kts | 315° |
| 2026-05-01 15:34 | 11.38141 | -80.65341 | 33069 ft | 462 kts | 315° |